TLR weather

Mefford Field
Tulare, California, United States

Public forecast

Using degrees Fahrenheit for public forecast. Weather courtesy of forecast.io.

Closest aviation weather report (METAR) to Mefford Field

Closest report is Visalia Municipal Airport, 10.3 nm (19.0 km) NNW. Retrieved 2020/07/08 06:56 UTC (50 minutes ago):

KVIS 080656Z AUTO 33004KT 10SM 22/12 A2984 RMK AO2 SLP109 T02220117

Closest aviation forecast (TAF) to Mefford Field

Closest forecast is Visalia Municipal Airport, 10.3 nm (19.0 km) NNW. Retrieved 2020/07/08 06:22 UTC (1 hour ago):

TAF KVIS 080520Z 0806/0906 31007KT P6SM SKC